sensor_id;sensor_type;location;lat;lon;timestamp;P1;durP1;ratioP1;P2;durP2;ratioP2
64085;SDS011;50333;47.436;21.390;2022-08-23T00:01:35;8.00;;;6.65;;
64085;SDS011;50333;47.436;21.390;2022-08-23T00:06:37;10.15;;;7.15;;
64085;SDS011;50333;47.436;21.390;2022-08-23T00:09:07;7.22;;;6.10;;
64085;SDS011;50333;47.436;21.390;2022-08-23T00:11:42;8.55;;;7.00;;
64085;SDS011;50333;47.436;21.390;2022-08-23T00:14:18;6.70;;;6.05;;
64085;SDS011;50333;47.436;21.390;2022-08-23T00:16:52;7.68;;;6.53;;
64085;SDS011;50333;47.436;21.390;2022-08-23T00:19:22;7.00;;;6.32;;
64085;SDS011;50333;47.436;21.390;2022-08-23T00:21:51;6.70;;;6.10;;
64085;SDS011;50333;47.436;21.390;2022-08-23T00:24:22;15.40;;;6.72;;
64085;SDS011;50333;47.436;21.390;2022-08-23T00:29:38;8.98;;;6.37;;
64085;SDS011;50333;47.436;21.390;2022-08-23T00:32:13;8.13;;;6.60;;
64085;SDS011;50333;47.436;21.390;2022-08-23T00:34:52;7.78;;;6.20;;
64085;SDS011;50333;47.436;21.390;2022-08-23T00:37:20;6.75;;;6.05;;
64085;SDS011;50333;47.436;21.390;2022-08-23T00:39:49;6.93;;;6.18;;
64085;SDS011;50333;47.436;21.390;2022-08-23T00:45:51;6.35;;;5.75;;
64085;SDS011;50333;47.436;21.390;2022-08-23T00:48:43;7.35;;;5.82;;
64085;SDS011;50333;47.436;21.390;2022-08-23T00:53:53;6.22;;;5.55;;
64085;SDS011;50333;47.436;21.390;2022-08-23T00:56:24;6.72;;;5.55;;
64085;SDS011;50333;47.436;21.390;2022-08-23T00:58:56;7.10;;;6.40;;
64085;SDS011;50333;47.436;21.390;2022-08-23T01:01:25;10.40;;;5.60;;
64085;SDS011;50333;47.436;21.390;2022-08-23T01:03:55;8.13;;;5.85;;
64085;SDS011;50333;47.436;21.390;2022-08-23T01:06:52;7.25;;;6.03;;
64085;SDS011;50333;47.436;21.390;2022-08-23T01:09:24;6.18;;;5.32;;
64085;SDS011;50333;47.436;21.390;2022-08-23T01:12:03;5.93;;;5.18;;
64085;SDS011;50333;47.436;21.390;2022-08-23T01:14:46;6.37;;;5.78;;
64085;SDS011;50333;47.436;21.390;2022-08-23T01:17:26;7.43;;;5.62;;
64085;SDS011;50333;47.436;21.390;2022-08-23T01:20:05;6.60;;;5.85;;
64085;SDS011;50333;47.436;21.390;2022-08-23T01:22:41;9.77;;;5.90;;
64085;SDS011;50333;47.436;21.390;2022-08-23T01:25:13;6.47;;;5.82;;
64085;SDS011;50333;47.436;21.390;2022-08-23T01:27:44;8.93;;;5.75;;
64085;SDS011;50333;47.436;21.390;2022-08-23T01:30:14;7.75;;;6.28;;
64085;SDS011;50333;47.436;21.390;2022-08-23T01:32:48;6.50;;;5.90;;
64085;SDS011;50333;47.436;21.390;2022-08-23T01:35:19;6.35;;;5.75;;
64085;SDS011;50333;47.436;21.390;2022-08-23T01:37:55;6.32;;;5.72;;
64085;SDS011;50333;47.436;21.390;2022-08-23T01:40:23;9.15;;;5.75;;
64085;SDS011;50333;47.436;21.390;2022-08-23T01:42:52;7.90;;;6.68;;
64085;SDS011;50333;47.436;21.390;2022-08-23T01:45:20;12.88;;;8.25;;
64085;SDS011;50333;47.436;21.390;2022-08-23T01:47:49;10.60;;;9.07;;
64085;SDS011;50333;47.436;21.390;2022-08-23T01:50:16;13.65;;;9.60;;
64085;SDS011;50333;47.436;21.390;2022-08-23T01:52:45;15.35;;;11.02;;
64085;SDS011;50333;47.436;21.390;2022-08-23T01:55:14;16.12;;;11.50;;
64085;SDS011;50333;47.436;21.390;2022-08-23T01:57:43;17.87;;;10.38;;
64085;SDS011;50333;47.436;21.390;2022-08-23T02:00:17;15.55;;;12.48;;
64085;SDS011;50333;47.436;21.390;2022-08-23T02:02:45;14.90;;;10.85;;
64085;SDS011;50333;47.436;21.390;2022-08-23T02:05:13;20.17;;;12.52;;
64085;SDS011;50333;47.436;21.390;2022-08-23T02:07:46;20.15;;;13.43;;
64085;SDS011;50333;47.436;21.390;2022-08-23T02:10:15;20.00;;;13.43;;
64085;SDS011;50333;47.436;21.390;2022-08-23T02:12:44;18.35;;;13.60;;
64085;SDS011;50333;47.436;21.390;2022-08-23T02:15:14;20.60;;;13.90;;
64085;SDS011;50333;47.436;21.390;2022-08-23T02:17:42;18.08;;;12.88;;
64085;SDS011;50333;47.436;21.390;2022-08-23T02:20:10;17.15;;;13.40;;
64085;SDS011;50333;47.436;21.390;2022-08-23T02:22:39;19.02;;;12.50;;
64085;SDS011;50333;47.436;21.390;2022-08-23T02:25:07;16.92;;;12.57;;
64085;SDS011;50333;47.436;21.390;2022-08-23T02:27:35;19.92;;;12.37;;
64085;SDS011;50333;47.436;21.390;2022-08-23T02:30:03;16.23;;;12.00;;
64085;SDS011;50333;47.436;21.390;2022-08-23T02:32:32;15.70;;;12.35;;
64085;SDS011;50333;47.436;21.390;2022-08-23T02:34:59;15.98;;;12.10;;
64085;SDS011;50333;47.436;21.390;2022-08-23T02:37:32;17.90;;;11.57;;
64085;SDS011;50333;47.436;21.390;2022-08-23T02:40:01;18.27;;;11.27;;
64085;SDS011;50333;47.436;21.390;2022-08-23T02:42:31;14.95;;;11.20;;
64085;SDS011;50333;47.436;21.390;2022-08-23T02:44:59;13.65;;;10.75;;
64085;SDS011;50333;47.436;21.390;2022-08-23T02:47:27;14.57;;;10.30;;
64085;SDS011;50333;47.436;21.390;2022-08-23T02:49:56;12.30;;;9.73;;
64085;SDS011;50333;47.436;21.390;2022-08-23T02:52:24;9.88;;;8.02;;
64085;SDS011;50333;47.436;21.390;2022-08-23T02:54:53;11.90;;;9.02;;
64085;SDS011;50333;47.436;21.390;2022-08-23T02:57:25;10.38;;;9.27;;
64085;SDS011;50333;47.436;21.390;2022-08-23T02:59:58;10.52;;;8.50;;
64085;SDS011;50333;47.436;21.390;2022-08-23T03:02:26;11.12;;;9.07;;
64085;SDS011;50333;47.436;21.390;2022-08-23T03:04:54;12.30;;;9.80;;
64085;SDS011;50333;47.436;21.390;2022-08-23T03:07:22;11.93;;;9.35;;
64085;SDS011;50333;47.436;21.390;2022-08-23T03:09:50;10.85;;;9.18;;
64085;SDS011;50333;47.436;21.390;2022-08-23T03:12:19;14.50;;;9.00;;
64085;SDS011;50333;47.436;21.390;2022-08-23T03:14:47;12.23;;;9.20;;
64085;SDS011;50333;47.436;21.390;2022-08-23T03:17:19;12.60;;;9.57;;
64085;SDS011;50333;47.436;21.390;2022-08-23T03:19:47;10.05;;;8.75;;
64085;SDS011;50333;47.436;21.390;2022-08-23T03:22:14;11.45;;;8.90;;
64085;SDS011;50333;47.436;21.390;2022-08-23T03:24:44;13.55;;;9.57;;
64085;SDS011;50333;47.436;21.390;2022-08-23T03:27:12;13.77;;;8.68;;
64085;SDS011;50333;47.436;21.390;2022-08-23T03:29:41;12.70;;;8.68;;
64085;SDS011;50333;47.436;21.390;2022-08-23T03:32:10;12.90;;;8.88;;
64085;SDS011;50333;47.436;21.390;2022-08-23T03:34:43;11.02;;;8.63;;
64085;SDS011;50333;47.436;21.390;2022-08-23T03:37:11;12.35;;;8.88;;
64085;SDS011;50333;47.436;21.390;2022-08-23T03:39:39;22.02;;;11.60;;
64085;SDS011;50333;47.436;21.390;2022-08-23T03:42:07;15.07;;;10.32;;
64085;SDS011;50333;47.436;21.390;2022-08-23T03:44:36;14.38;;;10.18;;
64085;SDS011;50333;47.436;21.390;2022-08-23T03:47:04;16.87;;;10.38;;
64085;SDS011;50333;47.436;21.390;2022-08-23T03:49:35;13.48;;;10.43;;
64085;SDS011;50333;47.436;21.390;2022-08-23T03:52:04;14.43;;;10.27;;
64085;SDS011;50333;47.436;21.390;2022-08-23T03:54:34;17.17;;;10.02;;
64085;SDS011;50333;47.436;21.390;2022-08-23T03:57:03;14.43;;;10.05;;
64085;SDS011;50333;47.436;21.390;2022-08-23T03:59:35;13.50;;;9.82;;
64085;SDS011;50333;47.436;21.390;2022-08-23T04:04:33;15.98;;;9.32;;
64085;SDS011;50333;47.436;21.390;2022-08-23T04:07:03;14.35;;;8.32;;
64085;SDS011;50333;47.436;21.390;2022-08-23T04:09:31;12.95;;;8.90;;
64085;SDS011;50333;47.436;21.390;2022-08-23T04:11:59;12.90;;;8.15;;
64085;SDS011;50333;47.436;21.390;2022-08-23T04:14:26;11.90;;;8.20;;
64085;SDS011;50333;47.436;21.390;2022-08-23T04:16:54;8.90;;;7.95;;
64085;SDS011;50333;47.436;21.390;2022-08-23T04:19:23;15.70;;;8.45;;
64085;SDS011;50333;47.436;21.390;2022-08-23T04:21:52;7.93;;;7.12;;
64085;SDS011;50333;47.436;21.390;2022-08-23T04:24:21;8.30;;;7.47;;
64085;SDS011;50333;47.436;21.390;2022-08-23T04:26:49;8.82;;;7.85;;
64085;SDS011;50333;47.436;21.390;2022-08-23T04:29:17;9.65;;;7.82;;
64085;SDS011;50333;47.436;21.390;2022-08-23T04:32:01;14.23;;;9.10;;
64085;SDS011;50333;47.436;21.390;2022-08-23T04:34:34;12.63;;;8.43;;
64085;SDS011;50333;47.436;21.390;2022-08-23T04:37:07;14.73;;;8.57;;
64085;SDS011;50333;47.436;21.390;2022-08-23T04:39:36;9.02;;;7.65;;
64085;SDS011;50333;47.436;21.390;2022-08-23T04:42:25;13.57;;;8.55;;
64085;SDS011;50333;47.436;21.390;2022-08-23T04:44:53;13.73;;;8.15;;
64085;SDS011;50333;47.436;21.390;2022-08-23T04:47:20;8.75;;;7.57;;
64085;SDS011;50333;47.436;21.390;2022-08-23T04:49:49;8.13;;;7.32;;
64085;SDS011;50333;47.436;21.390;2022-08-23T04:52:17;10.20;;;7.15;;
64085;SDS011;50333;47.436;21.390;2022-08-23T04:54:46;8.40;;;7.57;;
64085;SDS011;50333;47.436;21.390;2022-08-23T04:57:14;10.75;;;7.62;;
64085;SDS011;50333;47.436;21.390;2022-08-23T04:59:43;11.10;;;7.62;;
64085;SDS011;50333;47.436;21.390;2022-08-23T05:02:11;9.32;;;7.78;;
64085;SDS011;50333;47.436;21.390;2022-08-23T05:04:39;9.18;;;7.85;;
64085;SDS011;50333;47.436;21.390;2022-08-23T05:07:08;11.85;;;7.70;;
64085;SDS011;50333;47.436;21.390;2022-08-23T05:09:36;10.30;;;7.57;;
64085;SDS011;50333;47.436;21.390;2022-08-23T05:12:04;10.93;;;7.57;;
64085;SDS011;50333;47.436;21.390;2022-08-23T05:14:32;13.20;;;7.80;;
64085;SDS011;50333;47.436;21.390;2022-08-23T05:17:01;8.25;;;6.82;;
64085;SDS011;50333;47.436;21.390;2022-08-23T05:19:31;9.63;;;6.90;;
64085;SDS011;50333;47.436;21.390;2022-08-23T05:22:00;14.38;;;7.93;;
64085;SDS011;50333;47.436;21.390;2022-08-23T05:24:30;8.65;;;7.78;;
64085;SDS011;50333;47.436;21.390;2022-08-23T05:27:03;13.77;;;8.98;;
64085;SDS011;50333;47.436;21.390;2022-08-23T05:29:31;14.30;;;9.02;;
64085;SDS011;50333;47.436;21.390;2022-08-23T05:31:59;10.80;;;8.63;;
64085;SDS011;50333;47.436;21.390;2022-08-23T05:34:27;12.20;;;9.52;;
64085;SDS011;50333;47.436;21.390;2022-08-23T05:37:15;13.77;;;9.60;;
64085;SDS011;50333;47.436;21.390;2022-08-23T05:40:03;13.43;;;10.65;;
64085;SDS011;50333;47.436;21.390;2022-08-23T05:42:52;14.80;;;12.27;;
64085;SDS011;50333;47.436;21.390;2022-08-23T05:45:40;17.92;;;13.32;;
64085;SDS011;50333;47.436;21.390;2022-08-23T05:48:29;23.90;;;14.70;;
64085;SDS011;50333;47.436;21.390;2022-08-23T05:51:24;20.52;;;15.00;;
64085;SDS011;50333;47.436;21.390;2022-08-23T05:54:13;19.73;;;13.85;;
64085;SDS011;50333;47.436;21.390;2022-08-23T05:57:02;17.02;;;14.60;;
64085;SDS011;50333;47.436;21.390;2022-08-23T05:59:50;18.33;;;14.20;;
64085;SDS011;50333;47.436;21.390;2022-08-23T06:02:38;20.35;;;14.48;;
64085;SDS011;50333;47.436;21.390;2022-08-23T06:05:27;20.12;;;13.30;;
64085;SDS011;50333;47.436;21.390;2022-08-23T06:08:14;18.05;;;12.60;;
64085;SDS011;50333;47.436;21.390;2022-08-23T06:11:03;20.40;;;12.80;;
64085;SDS011;50333;47.436;21.390;2022-08-23T06:14:04;14.13;;;12.20;;
64085;SDS011;50333;47.436;21.390;2022-08-23T06:16:55;15.32;;;11.52;;
64085;SDS011;50333;47.436;21.390;2022-08-23T06:19:24;12.68;;;11.38;;
64085;SDS011;50333;47.436;21.390;2022-08-23T06:21:55;12.43;;;11.12;;
64085;SDS011;50333;47.436;21.390;2022-08-23T06:24:23;14.45;;;10.60;;
64085;SDS011;50333;47.436;21.390;2022-08-23T06:26:52;13.75;;;10.65;;
64085;SDS011;50333;47.436;21.390;2022-08-23T06:29:21;14.60;;;10.55;;
64085;SDS011;50333;47.436;21.390;2022-08-23T06:31:50;11.23;;;9.98;;
64085;SDS011;50333;47.436;21.390;2022-08-23T06:34:24;13.27;;;9.98;;
64085;SDS011;50333;47.436;21.390;2022-08-23T06:37:01;11.82;;;10.43;;
64085;SDS011;50333;47.436;21.390;2022-08-23T06:39:36;12.35;;;10.75;;
64085;SDS011;50333;47.436;21.390;2022-08-23T06:42:06;12.65;;;10.90;;
64085;SDS011;50333;47.436;21.390;2022-08-23T06:44:59;12.68;;;10.23;;
64085;SDS011;50333;47.436;21.390;2022-08-23T06:47:27;11.77;;;9.75;;
64085;SDS011;50333;47.436;21.390;2022-08-23T06:49:55;11.45;;;9.98;;
64085;SDS011;50333;47.436;21.390;2022-08-23T06:52:25;12.63;;;9.57;;
64085;SDS011;50333;47.436;21.390;2022-08-23T06:54:55;13.88;;;10.70;;
64085;SDS011;50333;47.436;21.390;2022-08-23T06:57:24;11.68;;;9.63;;
64085;SDS011;50333;47.436;21.390;2022-08-23T06:59:54;10.25;;;9.05;;
64085;SDS011;50333;47.436;21.390;2022-08-23T07:02:23;13.65;;;9.55;;
64085;SDS011;50333;47.436;21.390;2022-08-23T07:04:52;13.05;;;10.25;;
64085;SDS011;50333;47.436;21.390;2022-08-23T07:07:22;12.25;;;10.40;;
64085;SDS011;50333;47.436;21.390;2022-08-23T07:10:04;18.62;;;11.50;;
64085;SDS011;50333;47.436;21.390;2022-08-23T07:12:36;19.55;;;11.95;;
64085;SDS011;50333;47.436;21.390;2022-08-23T07:15:08;15.30;;;12.25;;
64085;SDS011;50333;47.436;21.390;2022-08-23T07:17:37;16.77;;;13.52;;
64085;SDS011;50333;47.436;21.390;2022-08-23T07:20:06;16.95;;;12.85;;
64085;SDS011;50333;47.436;21.390;2022-08-23T07:22:34;14.20;;;11.85;;
64085;SDS011;50333;47.436;21.390;2022-08-23T07:25:02;14.15;;;12.37;;
64085;SDS011;50333;47.436;21.390;2022-08-23T07:27:31;13.68;;;10.68;;
64085;SDS011;50333;47.436;21.390;2022-08-23T07:29:59;15.10;;;12.20;;
64085;SDS011;50333;47.436;21.390;2022-08-23T07:32:27;16.92;;;11.02;;
64085;SDS011;50333;47.436;21.390;2022-08-23T07:34:55;15.73;;;12.20;;
64085;SDS011;50333;47.436;21.390;2022-08-23T07:37:23;14.13;;;12.45;;
64085;SDS011;50333;47.436;21.390;2022-08-23T07:39:51;14.07;;;10.38;;
64085;SDS011;50333;47.436;21.390;2022-08-23T07:42:25;12.57;;;10.65;;
64085;SDS011;50333;47.436;21.390;2022-08-23T07:44:53;13.00;;;10.27;;
64085;SDS011;50333;47.436;21.390;2022-08-23T07:47:21;12.10;;;10.23;;
64085;SDS011;50333;47.436;21.390;2022-08-23T07:49:49;15.88;;;11.10;;
64085;SDS011;50333;47.436;21.390;2022-08-23T07:52:17;14.32;;;11.10;;
64085;SDS011;50333;47.436;21.390;2022-08-23T07:54:45;9.88;;;8.32;;
64085;SDS011;50333;47.436;21.390;2022-08-23T07:59:44;11.90;;;9.27;;
64085;SDS011;50333;47.436;21.390;2022-08-23T08:02:12;10.68;;;8.95;;
64085;SDS011;50333;47.436;21.390;2022-08-23T08:04:40;9.88;;;8.40;;
64085;SDS011;50333;47.436;21.390;2022-08-23T08:07:09;10.32;;;8.25;;
64085;SDS011;50333;47.436;21.390;2022-08-23T08:09:47;12.20;;;8.13;;
64085;SDS011;50333;47.436;21.390;2022-08-23T08:12:15;13.13;;;8.60;;
64085;SDS011;50333;47.436;21.390;2022-08-23T08:17:17;15.63;;;8.70;;
64085;SDS011;50333;47.436;21.390;2022-08-23T08:19:56;10.70;;;9.60;;
64085;SDS011;50333;47.436;21.390;2022-08-23T08:22:26;10.10;;;9.10;;
64085;SDS011;50333;47.436;21.390;2022-08-23T08:25:02;16.55;;;8.52;;
64085;SDS011;50333;47.436;21.390;2022-08-23T08:27:30;12.48;;;7.68;;
64085;SDS011;50333;47.436;21.390;2022-08-23T08:30:05;10.00;;;7.90;;
64085;SDS011;50333;47.436;21.390;2022-08-23T08:32:35;11.18;;;7.28;;
64085;SDS011;50333;47.436;21.390;2022-08-23T08:35:13;6.80;;;6.10;;
64085;SDS011;50333;47.436;21.390;2022-08-23T08:37:42;7.12;;;6.37;;
64085;SDS011;50333;47.436;21.390;2022-08-23T08:40:10;8.75;;;6.12;;
64085;SDS011;50333;47.436;21.390;2022-08-23T08:42:52;6.43;;;5.18;;
64085;SDS011;50333;47.436;21.390;2022-08-23T08:45:56;9.52;;;6.15;;
64085;SDS011;50333;47.436;21.390;2022-08-23T08:48:50;8.80;;;7.22;;
64085;SDS011;50333;47.436;21.390;2022-08-23T08:54:17;12.20;;;7.03;;
64085;SDS011;50333;47.436;21.390;2022-08-23T08:56:50;9.57;;;7.70;;
64085;SDS011;50333;47.436;21.390;2022-08-23T08:59:24;7.25;;;6.22;;
64085;SDS011;50333;47.436;21.390;2022-08-23T09:02:02;9.20;;;5.93;;
64085;SDS011;50333;47.436;21.390;2022-08-23T09:04:53;8.00;;;6.18;;
64085;SDS011;50333;47.436;21.390;2022-08-23T09:12:55;8.18;;;6.07;;
64085;SDS011;50333;47.436;21.390;2022-08-23T09:15:40;7.80;;;6.75;;
64085;SDS011;50333;47.436;21.390;2022-08-23T09:18:24;9.10;;;6.78;;
64085;SDS011;50333;47.436;21.390;2022-08-23T09:20:53;7.97;;;7.18;;
64085;SDS011;50333;47.436;21.390;2022-08-23T09:23:30;9.10;;;6.15;;
64085;SDS011;50333;47.436;21.390;2022-08-23T09:26:03;7.78;;;6.78;;
64085;SDS011;50333;47.436;21.390;2022-08-23T09:28:41;7.90;;;6.20;;
64085;SDS011;50333;47.436;21.390;2022-08-23T09:31:12;6.68;;;6.00;;
64085;SDS011;50333;47.436;21.390;2022-08-23T09:34:05;6.78;;;6.07;;
64085;SDS011;50333;47.436;21.390;2022-08-23T09:36:35;7.35;;;5.65;;
64085;SDS011;50333;47.436;21.390;2022-08-23T09:39:06;7.10;;;5.75;;
64085;SDS011;50333;47.436;21.390;2022-08-23T09:41:58;9.43;;;6.12;;
64085;SDS011;50333;47.436;21.390;2022-08-23T09:44:36;7.07;;;6.37;;
64085;SDS011;50333;47.436;21.390;2022-08-23T09:49:42;8.38;;;6.25;;
64085;SDS011;50333;47.436;21.390;2022-08-23T09:52:19;5.57;;;5.00;;
64085;SDS011;50333;47.436;21.390;2022-08-23T09:55:05;6.35;;;5.22;;
64085;SDS011;50333;47.436;21.390;2022-08-23T09:57:38;7.70;;;5.18;;
64085;SDS011;50333;47.436;21.390;2022-08-23T10:02:48;6.12;;;5.32;;
64085;SDS011;50333;47.436;21.390;2022-08-23T10:05:19;7.65;;;4.85;;
64085;SDS011;50333;47.436;21.390;2022-08-23T10:08:00;9.60;;;6.68;;
64085;SDS011;50333;47.436;21.390;2022-08-23T10:10:47;8.70;;;6.10;;
64085;SDS011;50333;47.436;21.390;2022-08-23T10:13:18;10.02;;;6.30;;
64085;SDS011;50333;47.436;21.390;2022-08-23T10:15:54;9.70;;;5.90;;
64085;SDS011;50333;47.436;21.390;2022-08-23T10:18:27;6.57;;;5.57;;
64085;SDS011;50333;47.436;21.390;2022-08-23T10:21:27;30.60;;;12.52;;
64085;SDS011;50333;47.436;21.390;2022-08-23T10:24:11;20.30;;;11.73;;
64085;SDS011;50333;47.436;21.390;2022-08-23T10:26:45;7.93;;;6.72;;
64085;SDS011;50333;47.436;21.390;2022-08-23T10:30:06;10.23;;;7.78;;
64085;SDS011;50333;47.436;21.390;2022-08-23T10:43:52;6.35;;;5.70;;
64085;SDS011;50333;47.436;21.390;2022-08-23T10:49:35;9.68;;;5.60;;
64085;SDS011;50333;47.436;21.390;2022-08-23T10:52:07;6.32;;;5.32;;
64085;SDS011;50333;47.436;21.390;2022-08-23T10:54:45;9.77;;;5.22;;
64085;SDS011;50333;47.436;21.390;2022-08-23T10:57:30;14.13;;;9.18;;
64085;SDS011;50333;47.436;21.390;2022-08-23T11:00:11;6.55;;;4.80;;
64085;SDS011;50333;47.436;21.390;2022-08-23T11:02:46;12.35;;;6.37;;
64085;SDS011;50333;47.436;21.390;2022-08-23T11:05:23;8.43;;;6.12;;
64085;SDS011;50333;47.436;21.390;2022-08-23T11:08:01;9.02;;;7.20;;
64085;SDS011;50333;47.436;21.390;2022-08-23T11:18:46;13.38;;;5.55;;
64085;SDS011;50333;47.436;21.390;2022-08-23T11:23:47;7.37;;;4.65;;
64085;SDS011;50333;47.436;21.390;2022-08-23T11:34:28;7.82;;;4.43;;
64085;SDS011;50333;47.436;21.390;2022-08-23T11:44:58;4.32;;;3.92;;
64085;SDS011;50333;47.436;21.390;2022-08-23T11:50:36;4.93;;;4.15;;
64085;SDS011;50333;47.436;21.390;2022-08-23T12:05:25;5.62;;;4.15;;
64085;SDS011;50333;47.436;21.390;2022-08-23T12:22:03;4.53;;;3.80;;
64085;SDS011;50333;47.436;21.390;2022-08-23T12:26:44;4.43;;;3.70;;
64085;SDS011;50333;47.436;21.390;2022-08-23T12:37:42;4.00;;;3.60;;
64085;SDS011;50333;47.436;21.390;2022-08-23T12:40:37;5.07;;;4.15;;
64085;SDS011;50333;47.436;21.390;2022-08-23T12:45:53;5.40;;;4.12;;
64085;SDS011;50333;47.436;21.390;2022-08-23T12:48:25;3.78;;;3.40;;
64085;SDS011;50333;47.436;21.390;2022-08-23T12:51:02;4.45;;;3.80;;
64085;SDS011;50333;47.436;21.390;2022-08-23T12:53:36;10.23;;;3.83;;
64085;SDS011;50333;47.436;21.390;2022-08-23T12:56:27;8.43;;;4.20;;
64085;SDS011;50333;47.436;21.390;2022-08-23T12:59:00;4.55;;;3.70;;
64085;SDS011;50333;47.436;21.390;2022-08-23T13:01:33;4.70;;;4.00;;
64085;SDS011;50333;47.436;21.390;2022-08-23T13:04:06;4.93;;;3.80;;
64085;SDS011;50333;47.436;21.390;2022-08-23T13:06:41;5.40;;;3.67;;
64085;SDS011;50333;47.436;21.390;2022-08-23T13:09:18;6.62;;;3.55;;
64085;SDS011;50333;47.436;21.390;2022-08-23T13:11:51;5.68;;;3.47;;
64085;SDS011;50333;47.436;21.390;2022-08-23T13:14:21;5.12;;;3.22;;
64085;SDS011;50333;47.436;21.390;2022-08-23T13:16:57;3.53;;;3.22;;
64085;SDS011;50333;47.436;21.390;2022-08-23T13:19:42;6.37;;;3.55;;
64085;SDS011;50333;47.436;21.390;2022-08-23T13:25:07;6.15;;;3.45;;
64085;SDS011;50333;47.436;21.390;2022-08-23T13:28:07;4.53;;;3.33;;
64085;SDS011;50333;47.436;21.390;2022-08-23T13:31:06;3.75;;;3.42;;
64085;SDS011;50333;47.436;21.390;2022-08-23T13:33:34;3.78;;;3.35;;
64085;SDS011;50333;47.436;21.390;2022-08-23T13:36:09;3.87;;;3.45;;
64085;SDS011;50333;47.436;21.390;2022-08-23T13:38:42;8.13;;;3.50;;
64085;SDS011;50333;47.436;21.390;2022-08-23T13:41:27;4.07;;;3.35;;
64085;SDS011;50333;47.436;21.390;2022-08-23T13:44:07;4.82;;;3.35;;
64085;SDS011;50333;47.436;21.390;2022-08-23T13:46:42;5.12;;;3.20;;
64085;SDS011;50333;47.436;21.390;2022-08-23T13:49:13;18.67;;;3.70;;
64085;SDS011;50333;47.436;21.390;2022-08-23T13:54:47;6.28;;;3.12;;
64085;SDS011;50333;47.436;21.390;2022-08-23T13:57:19;3.85;;;3.40;;
64085;SDS011;50333;47.436;21.390;2022-08-23T13:59:49;3.60;;;3.05;;
64085;SDS011;50333;47.436;21.390;2022-08-23T14:02:20;3.90;;;3.45;;
64085;SDS011;50333;47.436;21.390;2022-08-23T14:04:49;3.47;;;3.17;;
64085;SDS011;50333;47.436;21.390;2022-08-23T14:07:18;4.53;;;3.05;;
64085;SDS011;50333;47.436;21.390;2022-08-23T14:09:46;6.00;;;2.97;;
64085;SDS011;50333;47.436;21.390;2022-08-23T14:12:20;3.35;;;3.00;;
64085;SDS011;50333;47.436;21.390;2022-08-23T14:14:54;3.00;;;2.78;;
64085;SDS011;50333;47.436;21.390;2022-08-23T14:17:23;5.12;;;3.08;;
64085;SDS011;50333;47.436;21.390;2022-08-23T14:19:52;3.15;;;2.85;;
64085;SDS011;50333;47.436;21.390;2022-08-23T14:22:40;3.53;;;3.20;;
64085;SDS011;50333;47.436;21.390;2022-08-23T14:25:09;4.87;;;2.90;;
64085;SDS011;50333;47.436;21.390;2022-08-23T14:27:39;4.30;;;3.30;;
64085;SDS011;50333;47.436;21.390;2022-08-23T14:30:11;3.60;;;3.30;;
64085;SDS011;50333;47.436;21.390;2022-08-23T14:32:48;3.00;;;2.80;;
64085;SDS011;50333;47.436;21.390;2022-08-23T14:35:17;3.50;;;3.20;;
64085;SDS011;50333;47.436;21.390;2022-08-23T14:37:44;3.45;;;3.12;;
64085;SDS011;50333;47.436;21.390;2022-08-23T14:40:31;5.78;;;2.97;;
64085;SDS011;50333;47.436;21.390;2022-08-23T14:43:01;5.40;;;3.10;;
64085;SDS011;50333;47.436;21.390;2022-08-23T14:45:31;7.97;;;3.30;;
64085;SDS011;50333;47.436;21.390;2022-08-23T14:47:59;4.28;;;3.25;;
64085;SDS011;50333;47.436;21.390;2022-08-23T14:50:27;3.30;;;2.97;;
64085;SDS011;50333;47.436;21.390;2022-08-23T14:52:55;9.98;;;3.20;;
64085;SDS011;50333;47.436;21.390;2022-08-23T14:55:23;3.92;;;3.10;;
64085;SDS011;50333;47.436;21.390;2022-08-23T14:57:51;3.30;;;3.00;;
64085;SDS011;50333;47.436;21.390;2022-08-23T15:00:19;4.87;;;3.20;;
64085;SDS011;50333;47.436;21.390;2022-08-23T15:02:47;4.60;;;3.10;;
64085;SDS011;50333;47.436;21.390;2022-08-23T15:05:16;3.97;;;2.70;;
64085;SDS011;50333;47.436;21.390;2022-08-23T15:07:44;14.10;;;2.97;;
64085;SDS011;50333;47.436;21.390;2022-08-23T15:10:12;5.37;;;3.28;;
64085;SDS011;50333;47.436;21.390;2022-08-23T15:13:01;8.15;;;2.95;;
64085;SDS011;50333;47.436;21.390;2022-08-23T15:15:52;6.40;;;2.75;;
64085;SDS011;50333;47.436;21.390;2022-08-23T15:18:21;7.10;;;3.03;;
64085;SDS011;50333;47.436;21.390;2022-08-23T15:20:49;3.30;;;3.00;;
64085;SDS011;50333;47.436;21.390;2022-08-23T15:23:18;7.25;;;2.97;;
64085;SDS011;50333;47.436;21.390;2022-08-23T15:25:47;3.87;;;3.10;;
64085;SDS011;50333;47.436;21.390;2022-08-23T15:28:17;4.85;;;2.90;;
64085;SDS011;50333;47.436;21.390;2022-08-23T15:30:46;4.07;;;3.00;;
64085;SDS011;50333;47.436;21.390;2022-08-23T15:33:15;3.45;;;2.97;;
64085;SDS011;50333;47.436;21.390;2022-08-23T15:35:46;3.53;;;3.20;;
64085;SDS011;50333;47.436;21.390;2022-08-23T15:38:18;4.15;;;2.92;;
64085;SDS011;50333;47.436;21.390;2022-08-23T15:40:49;3.72;;;3.20;;
64085;SDS011;50333;47.436;21.390;2022-08-23T15:43:20;3.50;;;3.20;;
64085;SDS011;50333;47.436;21.390;2022-08-23T15:45:51;3.35;;;2.90;;
64085;SDS011;50333;47.436;21.390;2022-08-23T15:48:22;4.43;;;3.03;;
64085;SDS011;50333;47.436;21.390;2022-08-23T15:50:50;2.80;;;2.60;;
64085;SDS011;50333;47.436;21.390;2022-08-23T15:53:19;4.70;;;3.00;;
64085;SDS011;50333;47.436;21.390;2022-08-23T15:55:47;6.55;;;3.08;;
64085;SDS011;50333;47.436;21.390;2022-08-23T15:58:17;7.05;;;3.20;;
64085;SDS011;50333;47.436;21.390;2022-08-23T16:00:51;3.22;;;2.87;;
64085;SDS011;50333;47.436;21.390;2022-08-23T16:03:20;3.00;;;2.80;;
64085;SDS011;50333;47.436;21.390;2022-08-23T16:05:50;3.10;;;2.67;;
64085;SDS011;50333;47.436;21.390;2022-08-23T16:08:22;7.72;;;2.85;;
64085;SDS011;50333;47.436;21.390;2022-08-23T16:10:55;4.65;;;3.00;;
64085;SDS011;50333;47.436;21.390;2022-08-23T16:13:24;3.47;;;3.00;;
64085;SDS011;50333;47.436;21.390;2022-08-23T16:15:53;5.15;;;3.50;;
64085;SDS011;50333;47.436;21.390;2022-08-23T16:18:21;4.45;;;3.00;;
64085;SDS011;50333;47.436;21.390;2022-08-23T16:20:49;3.70;;;3.35;;
64085;SDS011;50333;47.436;21.390;2022-08-23T16:23:21;3.87;;;3.35;;
64085;SDS011;50333;47.436;21.390;2022-08-23T16:25:49;5.10;;;3.30;;
64085;SDS011;50333;47.436;21.390;2022-08-23T16:28:17;3.72;;;3.10;;
64085;SDS011;50333;47.436;21.390;2022-08-23T16:30:45;4.60;;;3.30;;
64085;SDS011;50333;47.436;21.390;2022-08-23T16:33:13;5.55;;;3.00;;
64085;SDS011;50333;47.436;21.390;2022-08-23T16:35:41;4.05;;;3.00;;
64085;SDS011;50333;47.436;21.390;2022-08-23T16:38:08;5.22;;;3.17;;
64085;SDS011;50333;47.436;21.390;2022-08-23T16:40:36;4.00;;;3.20;;
64085;SDS011;50333;47.436;21.390;2022-08-23T16:43:04;6.87;;;3.25;;
64085;SDS011;50333;47.436;21.390;2022-08-23T16:45:33;6.95;;;2.87;;
64085;SDS011;50333;47.436;21.390;2022-08-23T16:48:01;3.28;;;2.92;;
64085;SDS011;50333;47.436;21.390;2022-08-23T16:50:29;6.45;;;3.90;;
64085;SDS011;50333;47.436;21.390;2022-08-23T16:52:59;4.68;;;3.42;;
64085;SDS011;50333;47.436;21.390;2022-08-23T16:55:33;3.75;;;3.30;;
64085;SDS011;50333;47.436;21.390;2022-08-23T16:58:03;4.78;;;3.20;;
64085;SDS011;50333;47.436;21.390;2022-08-23T17:00:31;3.30;;;2.95;;
64085;SDS011;50333;47.436;21.390;2022-08-23T17:03:00;3.75;;;2.70;;